createdAt,value
2019-03-01T00:03:26.245Z,99763.86
2019-03-01T00:08:58.298Z,99761.70
2019-03-01T00:14:17.748Z,99767.61
2019-03-01T00:19:38.369Z,99758.90
2019-03-01T00:25:02.918Z,99755.45
2019-03-01T00:30:41.262Z,99745.29
2019-03-01T00:36:17.748Z,99745.45
2019-03-01T00:41:56.342Z,99748.70
2019-03-01T00:46:58.140Z,99748.36
2019-03-01T00:51:59.788Z,99736.22
2019-03-01T00:57:01.461Z,99737.69
2019-03-01T01:02:03.343Z,99733.42
2019-03-01T01:07:04.909Z,99723.09
2019-03-01T01:12:06.496Z,99725.05
2019-03-01T01:17:08.048Z,99718.50
2019-03-01T01:22:09.624Z,99710.15
2019-03-01T01:27:11.181Z,99705.38
2019-03-01T01:32:12.741Z,99705.88
2019-03-01T01:37:14.296Z,99689.30
2019-03-01T01:42:15.962Z,99687.52
2019-03-01T01:47:17.681Z,99687.52
2019-03-01T01:52:19.461Z,99682.91
2019-03-01T01:57:21.010Z,99676.34
2019-03-01T02:02:22.667Z,99668.47
2019-03-01T02:07:24.318Z,99666.50
2019-03-01T02:12:25.896Z,99658.31
2019-03-01T02:17:27.464Z,99658.30
2019-03-01T02:22:29.034Z,99650.92
2019-03-01T02:27:30.707Z,99647.30
2019-03-01T02:32:40.617Z,99638.13
2019-03-01T02:37:42.181Z,99635.64
2019-03-01T02:42:43.733Z,99633.20
2019-03-01T02:47:45.495Z,99632.72
2019-03-01T02:52:47.145Z,99634.04
2019-03-01T02:57:48.711Z,99622.71
2019-03-01T03:02:50.371Z,99622.23
2019-03-01T03:07:53.878Z,99621.06
2019-03-01T03:13:00.756Z,99618.62
2019-03-01T03:18:02.296Z,99616.33
2019-03-01T03:23:03.870Z,99624.35
2019-03-01T03:28:05.521Z,99625.16
2019-03-01T03:33:07.111Z,99625.00
2019-03-01T03:38:08.673Z,99617.97
2019-03-01T03:43:10.232Z,99619.91
2019-03-01T03:48:11.804Z,99614.69
2019-03-01T03:53:13.483Z,99609.91
2019-03-01T03:58:15.147Z,99601.05
2019-03-01T04:03:16.720Z,99603.05
2019-03-01T04:08:18.376Z,99603.50
2019-03-01T04:13:19.935Z,99607.79
2019-03-01T04:18:21.497Z,99605.63
2019-03-01T04:23:23.067Z,99604.66
2019-03-01T04:28:24.697Z,99607.44
2019-03-01T04:33:26.208Z,99605.64
2019-03-01T04:38:27.762Z,99602.34
2019-03-01T04:43:29.339Z,99584.17
2019-03-01T04:48:30.885Z,99594.02
2019-03-01T04:53:32.561Z,99590.22
2019-03-01T04:58:34.113Z,99584.34
2019-03-01T05:03:35.673Z,99586.61
2019-03-01T05:08:37.249Z,99586.28
2019-03-01T05:13:38.811Z,99580.39
2019-03-01T05:18:40.373Z,99574.66
2019-03-01T05:23:41.933Z,99573.50
2019-03-01T05:28:43.501Z,99573.00
2019-03-01T05:33:45.065Z,99572.04
2019-03-01T05:38:46.628Z,99570.73
2019-03-01T05:43:48.223Z,99569.73
2019-03-01T05:48:49.804Z,99567.43
2019-03-01T05:53:51.509Z,99573.32
2019-03-01T05:59:16.222Z,99571.19
2019-03-01T06:04:30.704Z,99569.21
2019-03-01T06:09:59.704Z,99561.52
2019-03-01T06:15:31.300Z,99563.52
2019-03-01T06:21:02.105Z,99560.56
2019-03-01T06:26:33.604Z,99553.67
2019-03-01T06:32:19.405Z,99554.66
2019-03-01T06:38:05.154Z,99548.44
2019-03-01T06:43:43.445Z,99549.27
2019-03-01T06:48:58.266Z,99552.22
2019-03-01T06:53:59.839Z,99545.81
2019-03-01T06:59:03.223Z,99546.97
2019-03-01T07:04:17.528Z,99542.06
2019-03-01T07:09:19.095Z,99550.92
2019-03-01T07:14:20.658Z,99553.36
2019-03-01T07:19:22.223Z,99559.28
2019-03-01T07:24:23.890Z,99568.45
2019-03-01T07:29:25.547Z,99563.85
2019-03-01T07:34:27.115Z,99570.58
2019-03-01T07:39:28.673Z,99565.83
2019-03-01T07:44:30.261Z,99564.02
2019-03-01T07:49:31.804Z,99573.05
2019-03-01T07:54:33.473Z,99581.41
2019-03-01T07:59:38.438Z,99581.06
2019-03-01T08:04:38.551Z,99584.00
2019-03-01T08:09:41.405Z,99586.98
2019-03-01T08:14:43.572Z,99584.86
2019-03-01T08:19:45.733Z,99585.52
2019-03-01T08:24:47.592Z,99583.05
2019-03-01T08:29:49.162Z,99583.20
2019-03-01T08:34:53.703Z,99579.09
2019-03-01T08:39:54.294Z,99584.20
2019-03-01T08:44:58.174Z,99584.86
2019-03-01T08:49:59.609Z,99582.87
2019-03-01T08:55:03.921Z,99584.66
2019-03-01T09:00:11.009Z,99591.33
2019-03-01T09:05:12.735Z,99589.10
2019-03-01T09:10:15.075Z,99589.71
2019-03-01T09:15:16.745Z,99582.41
2019-03-01T09:20:18.331Z,99589.44
2019-03-01T09:25:20.017Z,99589.77
2019-03-01T09:30:22.146Z,99578.88
2019-03-01T09:35:43.233Z,99587.75
2019-03-01T09:40:45.286Z,99592.11
2019-03-01T09:45:48.764Z,99591.64
2019-03-01T09:50:50.442Z,99581.09
2019-03-01T09:55:52.005Z,99583.95
2019-03-01T10:00:57.611Z,99594.27
2019-03-01T10:05:59.183Z,99589.91
2019-03-01T10:11:00.750Z,99588.41
2019-03-01T10:16:02.406Z,99586.23
2019-03-01T10:21:04.176Z,99579.05
2019-03-01T10:26:05.837Z,99577.16
2019-03-01T10:31:07.401Z,99577.70
2019-03-01T10:36:09.070Z,99567.68
2019-03-01T10:41:10.854Z,99566.20
2019-03-01T10:46:12.665Z,99570.42
2019-03-01T10:51:14.247Z,99572.46
2019-03-01T10:56:15.818Z,99586.77
2019-03-01T11:01:17.502Z,99581.02
2019-03-01T11:06:19.068Z,99580.41
2019-03-01T11:11:20.700Z,99575.47
2019-03-01T11:16:22.268Z,99573.77
2019-03-01T11:21:23.979Z,99572.00
2019-03-01T11:26:25.536Z,99574.31
2019-03-01T11:31:27.084Z,99562.58
2019-03-01T11:36:28.644Z,99561.68
2019-03-01T11:41:30.535Z,99565.80
2019-03-01T11:46:32.098Z,99567.58
2019-03-01T11:51:33.778Z,99562.84
2019-03-01T11:56:35.333Z,99567.92
2019-03-01T12:01:37.003Z,99569.23
2019-03-01T12:06:38.556Z,99582.88
2019-03-01T12:11:40.104Z,99597.77
2019-03-01T12:16:41.673Z,99601.41
2019-03-01T12:21:43.257Z,99602.63
2019-03-01T12:26:44.830Z,99592.17
2019-03-01T12:31:46.412Z,99600.09
2019-03-01T12:36:47.990Z,99608.91
2019-03-01T12:41:49.569Z,99608.91
2019-03-01T12:46:51.147Z,99608.91
2019-03-01T12:51:52.737Z,99610.18
2019-03-01T12:56:54.337Z,99606.00
2019-03-01T13:01:55.905Z,99598.39
2019-03-01T13:06:57.517Z,99603.23
2019-03-01T13:11:59.077Z,99604.59
2019-03-01T13:17:01.779Z,99605.38
2019-03-01T13:22:04.242Z,99609.14
2019-03-01T13:27:05.832Z,99609.68
2019-03-01T13:32:07.427Z,99627.02
2019-03-01T13:37:14.436Z,99634.10
2019-03-01T13:42:13.390Z,99632.14
2019-03-01T13:47:15.591Z,99639.04
2019-03-01T13:52:17.185Z,99635.47
2019-03-01T13:57:18.760Z,99646.34
2019-03-01T14:02:20.344Z,99647.67
2019-03-01T14:07:21.908Z,99656.88
2019-03-01T14:12:23.513Z,99659.00
2019-03-01T14:17:25.739Z,99661.48
2019-03-01T14:22:27.489Z,99669.30
2019-03-01T14:27:29.553Z,99665.70
2019-03-01T14:32:32.075Z,99674.37
2019-03-01T14:37:33.643Z,99675.54
2019-03-01T14:42:35.220Z,99687.33
2019-03-01T14:47:36.922Z,99695.36
2019-03-01T14:52:38.512Z,99691.77
2019-03-01T14:57:46.191Z,99702.41
2019-03-01T15:02:55.993Z,99698.97
2019-03-01T15:07:57.693Z,99703.37
2019-03-01T15:12:59.263Z,99706.48
2019-03-01T15:18:00.858Z,99710.59
2019-03-01T15:23:02.555Z,99715.82
2019-03-01T15:28:04.124Z,99714.66
2019-03-01T15:33:08.409Z,99724.20
2019-03-01T15:38:10.912Z,99729.59
2019-03-01T15:43:12.555Z,99736.18
2019-03-01T15:48:14.304Z,99738.47
2019-03-01T15:53:15.877Z,99748.31
2019-03-01T15:58:17.431Z,99753.05
2019-03-01T16:03:19.003Z,99766.64
2019-03-01T16:08:23.049Z,99774.63
2019-03-01T16:13:24.617Z,99784.57
2019-03-01T16:18:26.186Z,99798.47
2019-03-01T16:23:30.283Z,99803.34
2019-03-01T16:28:32.306Z,99804.92
2019-03-01T16:33:34.038Z,99819.31
2019-03-01T16:38:40.979Z,99828.48
2019-03-01T16:43:39.109Z,99832.72
2019-03-01T16:48:40.675Z,99838.97
2019-03-01T16:53:42.257Z,99849.88
2019-03-01T16:58:43.829Z,99865.23
2019-03-01T17:03:45.775Z,99878.96
2019-03-01T17:08:47.350Z,99880.81
2019-03-01T17:13:48.908Z,99891.91
2019-03-01T17:18:50.505Z,99905.26
2019-03-01T17:23:52.072Z,99919.83
2019-03-01T17:28:53.756Z,99914.44
2019-03-01T17:33:55.326Z,99933.09
2019-03-01T17:38:56.882Z,99938.16
2019-03-01T17:43:58.446Z,99945.38
2019-03-01T17:49:00.116Z,99950.37
2019-03-01T17:54:01.701Z,99962.86
2019-03-01T17:59:03.612Z,99963.02
2019-03-01T18:04:05.178Z,99976.55
2019-03-01T18:09:06.823Z,99989.41
2019-03-01T18:14:08.365Z,99985.92
2019-03-01T18:19:09.920Z,99990.81
2019-03-01T18:24:14.279Z,100003.08
2019-03-01T18:29:14.924Z,100006.16
2019-03-01T18:34:16.480Z,100018.09
2019-03-01T18:39:18.044Z,100021.05
2019-03-01T18:44:22.471Z,100028.30
2019-03-01T18:49:23.184Z,100044.43
2019-03-01T18:54:24.773Z,100051.05
2019-03-01T18:59:26.345Z,100051.86
2019-03-01T19:04:29.501Z,100058.33
2019-03-01T19:09:31.406Z,100063.02
2019-03-01T19:14:35.579Z,100076.95
2019-03-01T19:19:36.566Z,100074.87
2019-03-01T19:24:43.090Z,100071.41
2019-03-01T19:29:41.682Z,100081.95
2019-03-01T19:34:43.240Z,100086.56
2019-03-01T19:39:44.805Z,100091.33
2019-03-01T19:44:46.373Z,100105.81
2019-03-01T19:49:48.520Z,100110.63
2019-03-01T19:54:51.215Z,100116.03
2019-03-01T19:59:52.787Z,100128.09
2019-03-01T20:04:55.694Z,100149.73
2019-03-01T20:09:57.843Z,100151.50
2019-03-01T20:14:59.423Z,100153.96
2019-03-01T20:20:01.355Z,100164.02
2019-03-01T20:25:03.642Z,100166.77
2019-03-01T20:30:08.311Z,100184.09
2019-03-01T20:35:12.874Z,100200.81
2019-03-01T20:40:13.652Z,100201.06
2019-03-01T20:45:17.708Z,100202.26
2019-03-01T20:50:19.297Z,100210.94
2019-03-01T20:55:20.861Z,100209.14
2019-03-01T21:00:25.800Z,100216.72
2019-03-01T21:05:28.973Z,100222.65
2019-03-01T21:10:29.694Z,100219.02
2019-03-01T21:15:31.347Z,100217.26
2019-03-01T21:20:33.022Z,100227.76
2019-03-01T21:25:35.829Z,100230.20
2019-03-01T21:30:38.070Z,100231.55
2019-03-01T21:35:39.635Z,100243.95
2019-03-01T21:40:41.208Z,100241.09
2019-03-01T21:45:42.757Z,100230.77
2019-03-01T21:50:44.337Z,100234.67
2019-03-01T21:55:46.017Z,100241.77
2019-03-01T22:00:48.270Z,100234.84
2019-03-01T22:05:50.379Z,100233.55
2019-03-01T22:10:52.003Z,100233.15
2019-03-01T22:15:53.715Z,100234.73
2019-03-01T22:20:55.286Z,100235.45
2019-03-01T22:25:56.984Z,100230.41
2019-03-01T22:31:00.347Z,100238.66
2019-03-01T22:36:02.042Z,100240.84
2019-03-01T22:41:04.080Z,100249.98
2019-03-01T22:46:06.400Z,100255.17
2019-03-01T22:51:07.984Z,100266.06
2019-03-01T22:56:12.030Z,100262.61
2019-03-01T23:01:17.755Z,100265.96
2019-03-01T23:06:19.316Z,100254.78
2019-03-01T23:11:20.895Z,100265.96
2019-03-01T23:16:22.475Z,100260.50
2019-03-01T23:21:24.064Z,100253.20
2019-03-01T23:26:25.636Z,100247.55
2019-03-01T23:31:27.224Z,100254.39
2019-03-01T23:36:29.754Z,100257.39
2019-03-01T23:41:31.547Z,100258.31
2019-03-01T23:46:33.235Z,100255.77
2019-03-01T23:51:34.845Z,100250.86
2019-03-01T23:56:36.449Z,100249.70
